Station: Clermont Airport  

  Atmospheric Gas Attenuation - ITU Rec 676-11   ----------------- dB/100km -----------------
Date Time Temp RH % AH g/m3 Dew Point Wind Direction Speed kph Gust kph Barometer mB Rainfall Since 9am 24GHz 47GHz 76GHz 122GHz 134GHz 241GHz
08/05 12:40 21 22 4.03 -1.5 17 20 1020 0 9.7 17.9 21.4 55.1 39.7 133.3
08/05 12:30 20.7 23 4.14 -1.1 13 26 1020.1 0 9.9 18.1 21.8 56.3 41.0 137.7
08/05 12:20 20.3 23 4.04 -1.5 15 20 1020.1 0 9.7 18.1 21.6 55.7 40.2 134.8
08/05 12:10 20.2 24 4.2 -1 15 20 1020.3 0 10.1 18.3 22.1 57.1 41.9 140.7
08/05 12:00 20.4 25 4.42 -0.3 15 28 1020.5 0 10.5 18.5 22.7 58.8 44.1 148.4
08/05 11:50 20.1 25 4.35 -0.6 15 19 1020.6 0 10.4 18.5 22.6 58.4 43.5 146.4
08/05 11:40 19.6 25 4.22 -1 19 26 1020.7 0 10.1 18.5 22.3 57.7 42.4 142.5
08/05 11:30 19.8 26 4.44 -0.2 17 26 1020.9 0 10.6 18.7 23.0 59.4 44.6 150.3
08/05 11:20 19.6 25 4.22 -1 13 22 1021.2 0 10.1 18.5 22.3 57.7 42.4 142.6
08/05 11:10 19.4 26 4.34 -0.6 15 19 1021.3 0 10.4 18.7 22.8 58.9 43.8 147.4
08/05 11:00 19.1 28 4.59 0.2 17 30 1021.7 0 10.9 19.1 23.7 61.3 46.6 157.2
08/05 10:50 18.9 30 4.86 0.9 19 22 1021.9 0 11.5 19.5 24.6 63.8 49.6 167.8
08/05 10:40 18.6 30 4.77 0.7 17 26 1021.9 0 11.3 19.4 24.4 63.2 48.8 165.0
08/05 10:30 19 31 5.05 1.5 20 30 1022 0 11.9 19.7 25.2 65.4 51.6 174.8
08/05 10:20 18 32 4.91 1 17 22 1022.3 0 11.6 19.7 25.0 64.9 50.7 171.6
08/05 10:10 18.1 32 4.94 1.1 13 17 1022.2 0 11.7 19.7 25.1 65.1 51.0 172.5
08/05 10:00 17.6 33 4.95 1.2 22 35 1022.1 0 11.7 19.9 25.3 65.6 51.4 173.9
08/05 09:50 17.7 34 5.13 1.6 22 28 1022.4 0 12.1 20.1 25.9 67.1 53.3 180.7
08/05 09:40 17.3 35 5.16 1.7 22 32 1022.4 0 12.2 20.2 26.1 67.7 53.9 182.8
08/05 09:30 17.4 36 5.33 2.2 20 33 1022.3 0 12.5 20.4 26.6 69.2 55.7 189.2
08/05 09:20 16.8 40 5.72 3.4 15 20 1022.3 0 13.4 21.1 28.2 73.3 60.6 206.1
08/05 09:10 16.7 43 6.11 4 22 28 1022.2 0 14.2 21.7 29.6 77.0 65.1 222.2
08/05 09:00 16.7 44 6.25 4.4 24 39 1022 0 14.5 21.9 30.0 78.3 66.8 227.8
08/05 08:50 16.5 45 6.32 4.5 19 24 1021.9 0 14.6 22.0 30.4 79.1 67.7 231.3
08/05 08:40 16.5 48 6.74 5.4 15 20 1022 0 15.5 22.6 31.9 83.2 72.7 248.8
08/05 08:30 16 49 6.68 5.3 17 30 1021.7 0 15.4 22.6 31.8 83.1 72.4 247.7
08/05 08:20 15.8 51 6.86 5.7 17 22 1021.8 0 15.8 23.0 32.6 85.1 74.8 256.0
08/05 08:10 15.4 52 6.83 5.6 24 30 1021.8 0 15.8 23.0 32.6 85.2 74.8 256.0
08/05 08:00 15.4 53 6.96 5.9 17 22 1021.7 0 16.0 23.2 33.1 86.5 76.4 261.5
08/05 07:50 15.3 55 7.18 6.3 17 24 1021.6 0 16.5 23.6 34.0 88.7 79.2 271.3
08/05 07:40 14.9 55 7.01 5.9 17 20 1021.6 0 16.2 23.4 33.5 87.5 77.5 265.3
08/05 07:30 14.7 57 7.18 6.3 11 22 1021.4 0 16.5 23.7 34.2 89.4 79.8 273.3
08/05 07:20 14.4 57 7.05 6 7 9 1021.2 0 16.3 23.6 33.8 88.4 78.5 268.6
08/05 07:10 14.3 57 7 5.9 15 17 1021.1 0 16.2 23.5 33.7 88.0 77.9 266.7
08/05 07:00 14.1 58 7.04 6 11 19 1021.1 0 16.2 23.6 33.9 88.6 78.6 269.1
08/05 06:50 14 57 6.88 5.8 13 15 1020.9 0 15.9 23.4 33.3 87.1 76.7 262.4
08/05 06:40 14 57 6.88 5.6 9 13 1020.7 0 15.9 23.4 33.3 87.1 76.7 262.4
08/05 06:30 14.2 56 6.84 5.6 13 20 1020.5 0 15.8 23.3 33.1 86.4 76.0 260.0
08/05 06:20 14 55 6.63 5.3 11 15 1020.4 0 15.4 23.0 32.4 84.6 73.6 251.5
08/05 06:10 14.2 55 6.72 5.3 11 15 1020.3 0 15.6 23.1 32.6 85.2 74.5 254.7
08/05 06:00 14.2 55 6.72 5.3 11 19 1019.9 0 15.6 23.1 32.6 85.2 74.5 254.6
08/05 05:50 14.3 55 6.76 5.4 9 13 1019.7 0 15.6 23.1 32.7 85.5 74.9 256.0
08/05 05:40 14.4 54 6.68 5.2 11 13 1019.6 0 15.5 23.0 32.4 84.6 73.8 252.2
08/05 05:30 14.6 53 6.63 5.1 9 15 1019.5 0 15.4 22.8 32.1 83.8 73.0 249.4
08/05 05:20 14.9 52 6.63 5.1 9 13 1019.4 0 15.3 22.8 32.0 83.5 72.7 248.5
08/05 05:10 14.8 52 6.59 5 9 11 1019.3 0 15.3 22.7 31.9 83.2 72.3 247.1
08/05 05:00 15.1 51 6.58 5 11 19 1019.1 0 15.2 22.6 31.7 82.8 71.9 245.7
08/05 04:50 15.1 51 6.58 5 9 15 1019.1 0 15.2 22.6 31.7 82.8 71.9 245.7
08/05 04:40 15.3 51 6.66 5.2 7 9 1019 0 15.4 22.7 31.9 83.4 72.7 248.5
08/05 04:30 15.6 50 6.65 5.2 11 17 1018.9 0 15.4 22.6 31.8 83.0 72.3 247.1
08/05 04:20 15.6 50 6.65 5.2 13 19 1018.8 0 15.4 22.6 31.8 82.9 72.3 247.1
08/05 04:10 15.4 52 6.83 5.6 11 17 1018.6 0 15.8 22.9 32.5 84.9 74.6 255.3
08/05 04:00 15.6 52 6.92 5.8 11 19 1018.7 0 15.9 23.0 32.8 85.6 75.5 258.5
08/05 03:50 15.7 53 7.09 6.1 9 13 1018.6 0 16.3 23.2 33.3 87.1 77.5 265.4
08/05 03:40 15.8 53 7.13 6.2 13 15 1018.6 0 16.4 23.3 33.4 87.4 77.9 266.8
08/05 03:30 15.7 55 7.36 6.7 13 24 1018.5 0 16.9 23.6 34.3 89.8 80.8 277.0
08/05 03:20 15.8 56 7.54 7 15 19 1018.4 0 17.2 23.9 35.0 91.5 82.9 284.4
08/05 03:10 15.9 57 7.72 7.4 13 15 1018.4 0 17.6 24.1 35.6 93.2 85.0 291.9
08/05 03:00 15.9 58 7.85 7.7 9 15 1018.4 0 17.9 24.3 36.1 94.5 86.7 297.6
08/05 02:50 16 59 8.04 8 7 9 1018.5 0 18.3 24.6 36.8 96.3 88.9 305.6
08/05 02:40 16.1 59 8.09 8.1 9 11 1018.5 0 18.4 24.6 36.9 96.7 89.5 307.4
08/05 02:30 16.2 60 8.27 8.4 9 15 1018.5 0 18.8 24.9 37.6 98.5 91.6 315.0
08/05 02:20 16.3 60 8.32 8.7 13 15 1018.5 0 18.9 24.9 37.7 98.8 92.1 316.9
08/05 02:10 16.3 63 8.74 9.2 9 11 1018.5 0 19.8 25.6 39.3 103.2 97.5 335.6
08/05 02:00 16.3 64 8.88 9.5 9 13 1018.5 0 20.1 25.8 39.9 104.7 99.3 342.0
08/05 01:50 16.5 65 9.13 9.9 11 13 1018.6 0 20.6 26.2 40.8 107.0 102.3 352.5
08/05 01:40 16.8 66 9.44 10.4 11 13 1018.5 0 21.2 26.6 41.9 109.9 106.0 365.3
08/05 01:30 16.7 68 9.66 10.8 9 13 1018.4 0 21.7 26.9 42.8 112.4 109.0 375.8
08/05 01:20 17.1 66 9.61 10.7 9 11 1018.5 0 21.6 26.7 42.4 111.3 107.8 371.7
08/05 01:10 17.6 62 9.3 10.2 13 15 1018.5 0 20.9 26.1 40.9 107.3 103.1 355.2
08/05 01:00 17.8 62 9.41 10.4 11 19 1018.4 0 21.1 26.2 41.2 108.2 104.2 359.3
08/05 00:50 17.7 65 9.81 11.2 15 17 1018.4 0 22.0 26.9 42.8 112.6 109.5 378.0
08/05 00:40 17.5 70 10.44 12.1 11 17 1018.4 0 23.3 28.0 45.5 119.6 118.2 408.2
08/05 00:30 16.7 80 11.37 13.2 6 9 1018.4 0 25.3 29.8 49.9 131.3 132.3 457.2
08/05 00:20 16.1 84 11.51 13.5 4 6 1018.4 0 25.7 30.2 50.9 133.9 135.3 467.7
08/05 00:10 16.1 84 11.51 13.4 6 6 1018.5 0 25.7 30.3 50.9 133.9 135.3 467.7
08/05 00:00 16.4 82 11.44 13.3 4 4 1018.5 0 25.5 30.0 50.4 132.6 133.8 462.5
07/05 23:50 17.1 82 11.94 14 4 4 1018.5 0 26.5 30.7 52.1 137.1 139.6 482.9
07/05 23:40 17.1 82 11.94 14 4 4 1018.4 0 26.5 30.6 52.1 137.1 139.6 482.9
07/05 23:30 17 82 11.86 13.9 6 6 1018.4 0 26.4 30.5 51.8 136.4 138.6 479.5
07/05 23:20 17 82 11.86 13.9 6 6 1018.3 0 26.4 30.5 51.8 136.4 138.6 479.5
07/05 23:10 16.8 81 11.58 13.5 4 4 1018.5 0 25.8 30.1 50.7 133.5 135.0 467.0
07/05 23:00 17.4 79 11.71 13.7 4 6 1018.5 0 26.0 30.1 50.9 134.0 135.8 469.7
07/05 22:50 17.8 78 11.84 13.9 6 6 1018.5 0 26.3 30.2 51.2 134.8 136.9 473.6
07/05 22:40 18 77 11.83 13.9 4 6 1018.6 0 26.2 30.2 51.0 134.3 136.4 472.0
07/05 22:30 18 77 11.83 13.9 6 6 1018.6 0 26.2 30.2 51.0 134.3 136.4 472.0
07/05 22:20 18 77 11.83 13.9 6 6 1018.7 0 26.2 30.2 51.0 134.3 136.4 472.0
07/05 22:10 18.3 76 11.88 14 6 7 1018.7 0 26.3 30.1 51.0 134.4 136.6 472.6
07/05 22:00 18.2 76 11.81 13.9 6 7 1018.7 0 26.2 30.1 50.8 133.8 135.8 469.8
07/05 21:50 18.5 73 11.55 13.7 6 6 1018.7 0 25.6 29.5 49.5 130.3 131.7 455.5
07/05 21:40 18.9 73 11.83 13.9 4 4 1018.7 0 26.2 29.8 50.4 132.8 134.9 466.6
07/05 21:30 19 73 11.9 14.1 6 7 1018.8 0 26.3 29.9 50.7 133.4 135.7 469.4
07/05 21:20 19.2 72 11.87 14 6 7 1018.7 0 26.2 29.8 50.4 132.7 134.9 466.7
07/05 21:10 19.1 72 11.8 13.9 6 6 1018.7 0 26.1 29.7 50.2 132.1 134.1 463.9
07/05 21:00 19.6 71 11.98 14.2 6 9 1018.8 0 26.5 29.9 50.6 133.3 135.7 469.6
07/05 20:50 19.8 69 11.78 13.9 6 7 1018.7 0 26.0 29.5 49.6 130.7 132.6 458.8
07/05 20:40 20.2 68 11.89 14.1 6 7 1018.6 0 26.2 29.5 49.8 131.2 133.4 461.6
07/05 20:30 20.4 67 11.85 14.1 7 13 1018.5 0 26.1 29.4 49.5 130.5 132.5 458.5
07/05 20:20 20.7 66 11.88 14.1 6 7 1018.5 0 26.2 29.3 49.5 130.3 132.4 458.2
07/05 20:10 20.6 66 11.81 14.2 9 9 1018.3 0 26.0 29.2 49.2 129.7 131.6 455.4

Last Refresh: 08-May-2026 12:10:12

Bureau of Meteorology